Time;durP1;ratioP1;P1;durP2;ratioP2;P2;SDS_P1;SDS_P2;PMS_P1;PMS_P2;Temp;Humidity;BMP_temperature;BMP_pressure;BME280_temperature;BME280_humidity;BME280_pressure;Samples;Min_cycle;Max_cycle;Signal;HPM_P1;HPM_P2
2023/05/19 00:01:54;;;;;;;11.70;6.60;;;;;;;10.59;90.78;101232.67;180921;1267;43163;-57
2023/05/19 00:05:57;;;;;;;6.90;5.80;;;;;;;10.57;90.74;101236.70;180993;1267;42979;-57
2023/05/19 00:10:01;;;;;;;7.30;5.60;;;;;;;10.58;90.78;101234.30;180983;1267;43559;-57
2023/05/19 00:14:08;;;;;;;11.40;5.70;;;;;;;10.60;90.84;101235.22;181071;1266;43018;-57
2023/05/19 00:18:12;;;;;;;8.20;6.10;;;;;;;10.61;90.81;101231.65;180993;1267;58289;-58
2023/05/19 00:22:15;;;;;;;7.40;5.20;;;;;;;10.59;90.96;101232.30;181048;1267;43090;-57
2023/05/19 00:26:18;;;;;;;6.20;5.30;;;;;;;10.51;91.61;101229.27;181055;1267;43654;-58
2023/05/19 00:30:21;;;;;;;7.90;7.10;;;;;;;10.47;91.89;101228.34;181088;1266;43722;-57
2023/05/19 00:34:24;;;;;;;9.20;6.50;;;;;;;10.39;92.37;101227.37;181120;1267;43418;-58
2023/05/19 00:38:42;;;;;;;7.10;6.40;;;;;;;10.35;92.94;101231.92;181067;1267;58701;-57
2023/05/19 00:42:46;;;;;;;11.30;7.90;;;;;;;10.31;93.43;101231.46;181014;1267;43359;-57
2023/05/19 00:46:50;;;;;;;13.80;6.20;;;;;;;10.26;93.88;101231.22;181064;1266;43477;-57
2023/05/19 00:51:03;;;;;;;11.90;7.60;;;;;;;10.22;94.32;101229.20;181064;1266;43659;-56
2023/05/19 00:55:07;;;;;;;7.70;6.60;;;;;;;10.20;94.73;101230.91;180941;1267;43881;-55
2023/05/19 00:59:14;;;;;;;13.70;7.10;;;;;;;10.16;95.07;101233.85;180934;1267;58024;-56
2023/05/19 01:03:19;;;;;;;9.10;7.90;;;;;;;10.14;95.31;101238.00;181054;1266;44845;-56
2023/05/19 01:07:24;;;;;;;9.60;6.60;;;;;;;10.18;95.55;101238.88;181090;1267;43112;-56
2023/05/19 01:11:27;;;;;;;7.40;5.80;;;;;;;10.20;95.61;101238.54;181122;1266;43681;-56
2023/05/19 01:15:35;;;;;;;12.40;7.20;;;;;;;10.19;95.66;101236.28;181097;1266;43067;-56
2023/05/19 01:19:55;;;;;;;11.10;7.80;;;;;;;10.18;95.76;101238.70;180975;1267;59499;-56
2023/05/19 01:24:31;;;;;;;10.00;7.30;;;;;;;10.13;96.22;101239.33;181033;1266;43786;-56
2023/05/19 01:28:56;;;;;;;11.20;8.50;;;;;;;10.10;96.92;101237.89;180971;1267;43159;-56
2023/05/19 01:33:03;;;;;;;13.70;8.90;;;;;;;10.13;97.48;101238.45;181093;1267;43665;-56
2023/05/19 01:37:07;;;;;;;9.00;7.40;;;;;;;10.11;98.14;101246.73;181033;1267;43050;-56
2023/05/19 01:41:18;;;;;;;11.90;7.70;;;;;;;10.02;99.57;101249.11;181093;1267;59310;-57
2023/05/19 01:45:25;;;;;;;13.00;8.40;;;;;;;9.97;99.91;101247.82;180953;1269;43768;-56
2023/05/19 01:49:28;;;;;;;8.60;7.70;;;;;;;9.91;100.00;101249.28;180904;1267;43084;-56
2023/05/19 01:53:42;;;;;;;10.80;9.20;;;;;;;9.86;100.00;101248.67;181035;1267;43173;-56
2023/05/19 01:58:00;;;;;;;18.00;9.10;;;;;;;9.81;100.00;101250.73;181131;1265;42964;-56
2023/05/19 02:02:21;;;;;;;10.10;8.80;;;;;;;9.83;100.00;101251.67;180939;1267;59284;-56
2023/05/19 02:06:52;;;;;;;10.90;8.10;;;;;;;9.84;100.00;101252.17;180944;1268;43683;-56
2023/05/19 02:11:06;;;;;;;10.90;7.90;;;;;;;9.85;100.00;101250.16;181059;1267;43368;-56
2023/05/19 02:15:16;;;;;;;10.80;7.50;;;;;;;9.89;100.00;101246.52;181000;1265;43678;-57
2023/05/19 02:19:38;;;;;;;11.50;8.80;;;;;;;9.97;100.00;101246.73;180937;1267;43735;-56
2023/05/19 02:23:41;;;;;;;10.40;8.40;;;;;;;10.03;100.00;101247.42;180931;1270;58669;-56
2023/05/19 02:27:47;;;;;;;12.80;8.80;;;;;;;10.08;100.00;101248.67;180978;1267;43563;-57
2023/05/19 02:31:51;;;;;;;9.80;8.90;;;;;;;10.16;100.00;101250.65;181070;1267;43774;-57
2023/05/19 02:35:56;;;;;;;13.80;9.10;;;;;;;10.23;100.00;101251.09;181017;1267;43156;-56
2023/05/19 02:39:59;;;;;;;10.50;8.10;;;;;;;10.27;100.00;101250.64;180955;1269;43817;-56
2023/05/19 02:44:03;;;;;;;9.70;7.80;;;;;;;10.28;100.00;101253.45;181061;1267;57939;-57
2023/05/19 02:48:13;;;;;;;9.90;8.00;;;;;;;10.31;100.00;101253.62;180975;1265;43944;-56
2023/05/19 02:52:16;;;;;;;9.80;8.80;;;;;;;10.32;100.00;101252.85;181076;1267;43550;-56
2023/05/19 02:56:48;;;;;;;10.80;7.90;;;;;;;10.33;100.00;101252.59;181058;1267;43092;-56
2023/05/19 03:00:51;;;;;;;11.50;8.60;;;;;;;10.35;100.00;101249.65;181090;1267;43778;-57
2023/05/19 03:04:54;;;;;;;12.00;8.70;;;;;;;10.36;100.00;101248.35;180984;1267;58837;-57
2023/05/19 03:08:57;;;;;;;8.90;7.90;;;;;;;10.37;100.00;101248.41;181052;1267;43191;-58
2023/05/19 03:13:15;;;;;;;10.10;7.40;;;;;;;10.41;100.00;101247.16;181024;1267;43351;-57
2023/05/19 03:17:18;;;;;;;10.50;9.10;;;;;;;10.43;100.00;101245.05;181046;1269;45553;-57
2023/05/19 03:22:15;;;;;;;11.60;7.90;;;;;;;10.46;100.00;101244.89;181031;1267;43845;-58
2023/05/19 03:26:18;;;;;;;10.60;9.40;;;;;;;10.52;100.00;101242.02;181083;1267;59184;-58
2023/05/19 03:30:21;;;;;;;8.10;7.30;;;;;;;10.53;100.00;101245.84;181111;1267;43435;-57
2023/05/19 03:34:24;;;;;;;12.80;9.00;;;;;;;10.56;100.00;101244.92;181103;1269;42980;-58
2023/05/19 03:38:27;;;;;;;13.20;8.20;;;;;;;10.60;100.00;101237.95;181044;1269;43064;-57
2023/05/19 03:42:29;;;;;;;7.80;6.70;;;;;;;10.62;100.00;101242.02;181123;1266;43676;-57
2023/05/19 03:46:32;;;;;;;12.10;8.10;;;;;;;10.69;100.00;101240.50;181018;1266;59103;-57
2023/05/19 03:50:36;;;;;;;9.50;7.10;;;;;;;10.81;100.00;101241.85;181018;1267;43060;-57
2023/05/19 03:54:41;;;;;;;10.10;8.00;;;;;;;10.91;100.00;101246.16;181030;1265;43363;-57
2023/05/19 03:58:45;;;;;;;17.90;8.90;;;;;;;10.98;100.00;101242.78;181067;1267;43762;-58
2023/05/19 04:02:48;;;;;;;9.50;8.20;;;;;;;10.99;100.00;101240.63;181110;1267;43036;-58
2023/05/19 04:06:52;;;;;;;9.70;7.80;;;;;;;11.02;100.00;101242.05;181069;1266;59481;-58
2023/05/19 04:10:58;;;;;;;9.10;8.00;;;;;;;11.06;100.00;101235.73;181076;1267;43782;-57
2023/05/19 04:15:01;;;;;;;11.00;9.60;;;;;;;11.12;100.00;101236.90;181049;1267;43027;-57
2023/05/19 04:19:04;;;;;;;15.00;9.20;;;;;;;11.16;100.00;101237.30;181054;1267;43207;-57
2023/05/19 04:23:07;;;;;;;11.10;9.90;;;;;;;11.20;100.00;101239.20;181113;1265;43779;-57
2023/05/19 04:27:37;;;;;;;11.90;8.00;;;;;;;11.27;100.00;101242.08;181011;1267;58317;-57
2023/05/19 04:31:40;;;;;;;12.00;8.50;;;;;;;11.34;100.00;101245.69;180986;1267;43151;-57
2023/05/19 04:35:50;;;;;;;14.00;7.10;;;;;;;11.44;100.00;101245.04;181058;1266;42969;-57
2023/05/19 04:39:53;;;;;;;8.10;6.20;;;;;;;11.49;100.00;101245.55;180989;1269;43688;-58
2023/05/19 04:43:57;;;;;;;7.70;6.90;;;;;;;11.57;100.00;101248.66;181070;1265;43223;-61
2023/05/19 04:48:00;;;;;;;11.00;8.30;;;;;;;11.67;100.00;101257.42;180942;1267;58539;-61
2023/05/19 04:52:09;;;;;;;16.80;9.80;;;;;;;11.73;99.82;101255.43;181039;1266;43756;-61
2023/05/19 04:56:15;;;;;;;15.20;8.70;;;;;;;11.78;99.59;101253.96;180784;1267;164463;-60
2023/05/19 05:00:18;;;;;;;9.00;7.20;;;;;;;11.84;99.99;101250.57;180993;1267;43154;-61
2023/05/19 05:04:22;;;;;;;10.10;9.10;;;;;;;11.91;100.00;101253.60;181294;1262;44111;-61
2023/05/19 05:08:30;;;;;;;10.90;8.10;;;;;;;12.01;100.00;101250.09;181319;1261;58033;-61
2023/05/19 05:12:34;;;;;;;11.00;7.90;;;;;;;12.07;99.68;101251.94;181346;1262;43389;-62
2023/05/19 05:17:06;;;;;;;13.70;9.80;;;;;;;12.09;99.37;101244.86;181292;1262;43416;-61
2023/05/19 05:21:09;;;;;;;11.20;7.80;;;;;;;12.10;99.74;101247.25;181281;1263;43370;-61
2023/05/19 05:25:13;;;;;;;10.20;8.00;;;;;;;12.13;99.81;101248.82;181206;1263;43951;-61
2023/05/19 05:29:42;;;;;;;11.10;8.80;;;;;;;12.10;99.93;101254.43;181189;1264;60439;-61
2023/05/19 05:33:45;;;;;;;9.90;8.80;;;;;;;12.10;100.00;101253.14;181187;1263;43228;-61
2023/05/19 05:37:49;;;;;;;13.10;9.20;;;;;;;12.10;100.00;101256.02;181355;1262;43062;-61
2023/05/19 05:41:51;;;;;;;15.10;10.00;;;;;;;12.10;100.00;101252.27;181197;1262;43689;-61
2023/05/19 05:45:55;;;;;;;8.30;7.50;;;;;;;12.12;100.00;101255.90;181227;1261;43128;-61
2023/05/19 05:50:24;;;;;;;12.30;8.30;;;;;;;12.17;100.00;101256.73;181268;1262;58399;-61
2023/05/19 05:54:28;;;;;;;13.10;7.30;;;;;;;12.28;100.00;101259.36;181249;1263;44290;-61
2023/05/19 05:58:33;;;;;;;9.00;8.00;;;;;;;12.38;100.00;101259.45;181258;1266;44099;-59
2023/05/19 06:02:38;;;;;;;9.60;7.30;;;;;;;12.45;99.97;101260.59;181167;1262;44171;-61
2023/05/19 06:06:41;;;;;;;9.60;7.20;;;;;;;12.42;99.17;101265.81;181174;1263;43771;-60
2023/05/19 06:10:44;;;;;;;14.20;7.60;;;;;;;12.41;99.10;101269.39;181168;1263;59457;-60
2023/05/19 06:14:49;;;;;;;6.80;6.10;;;;;;;12.36;97.96;101272.95;181112;1263;43909;-61
2023/05/19 06:18:52;;;;;;;9.60;8.50;;;;;;;12.35;99.45;101273.77;181300;1264;43472;-61
2023/05/19 06:27:15;;;;;;;10.80;7.20;;;;;;;12.46;99.94;101276.54;157746;1260;44306;-89
2023/05/19 06:31:19;;;;;;;8.20;5.70;;;;;;;12.52;99.78;101279.64;180981;1260;59345;-88
2023/05/19 06:35:22;;;;;;;14.00;6.50;;;;;;;12.55;99.03;101277.29;180933;1260;43764;-90
2023/05/19 06:39:25;;;;;;;7.90;7.10;;;;;;;12.50;97.45;101282.80;180953;1260;43747;-88
2023/05/19 06:43:29;;;;;;;12.30;9.80;;;;;;;12.53;98.60;101284.69;180930;1260;43794;-89
2023/05/19 06:47:32;;;;;;;18.60;14.10;;;;;;;12.65;99.52;101282.58;180857;1260;44106;-88
2023/05/19 06:51:37;;;;;;;13.30;11.10;;;;;;;12.78;99.73;101290.39;180937;1259;59492;-89
2023/05/19 06:55:43;;;;;;;11.30;9.10;;;;;;;12.91;99.31;101289.75;180891;1260;44337;-90
2023/05/19 07:00:01;;;;;;;12.80;9.60;;;;;;;13.13;98.80;101290.23;180981;1260;44269;-90
2023/05/19 07:04:04;;;;;;;9.00;7.40;;;;;;;13.35;97.32;101293.70;180940;1259;44242;-89
2023/05/19 07:08:07;;;;;;;9.80;6.50;;;;;;;13.58;96.25;101291.80;180900;1260;44125;-88
2023/05/19 07:12:11;;;;;;;8.30;5.80;;;;;;;13.76;94.66;101289.64;180900;1259;58277;-87
2023/05/19 07:16:15;;;;;;;8.50;5.70;;;;;;;13.84;91.74;101291.00;180916;1259;44205;-90
2023/05/19 07:20:19;;;;;;;7.50;5.30;;;;;;;13.85;90.58;101292.14;181237;1259;43780;-89
2023/05/19 07:24:22;;;;;;;6.00;4.60;;;;;;;13.89;91.02;101287.93;180866;1260;44123;-89
2023/05/19 07:28:26;;;;;;;6.80;4.20;;;;;;;13.99;89.33;101286.62;181160;1259;44299;-88
2023/05/19 07:32:29;;;;;;;13.90;4.80;;;;;;;14.04;87.46;101285.31;181058;1259;58313;-88
2023/05/19 07:36:33;;;;;;;6.60;4.70;;;;;;;14.22;87.32;101284.80;181031;1260;44313;-90
2023/05/19 07:40:36;;;;;;;7.30;5.00;;;;;;;14.38;88.04;101282.02;181079;1259;43823;-89
2023/05/19 07:44:39;;;;;;;13.20;7.80;;;;;;;14.55;86.79;101278.35;180923;1260;44038;-89
2023/05/19 07:48:42;;;;;;;5.40;4.20;;;;;;;14.49;85.02;101275.77;181035;1259;44043;-86
2023/05/19 07:52:46;;;;;;;6.30;3.20;;;;;;;14.44;85.90;101274.41;181071;1260;58487;-91
2023/05/19 07:56:49;;;;;;;4.90;2.90;;;;;;;14.34;86.33;101273.06;180924;1260;43784;-88
2023/05/19 08:00:52;;;;;;;8.30;4.30;;;;;;;14.25;86.61;101276.86;180997;1259;43883;-89
2023/05/19 08:04:56;;;;;;;5.70;3.50;;;;;;;14.22;87.08;101279.23;181001;1260;44336;-90
2023/05/19 08:09:00;;;;;;;3.10;2.60;;;;;;;14.28;88.17;101276.95;180979;1260;43937;-89
2023/05/19 08:13:04;;;;;;;9.70;4.80;;;;;;;14.38;87.34;101278.42;181023;1260;58044;-88
2023/05/19 08:17:07;;;;;;;8.00;4.80;;;;;;;14.40;85.96;101280.77;181195;1259;43854;-88
2023/05/19 08:21:10;;;;;;;14.20;8.80;;;;;;;14.43;87.05;101278.02;181141;1260;43842;-88
2023/05/19 08:25:13;;;;;;;12.80;4.40;;;;;;;14.41;85.77;101278.55;181044;1259;44079;-88
2023/05/19 08:29:16;;;;;;;6.60;3.60;;;;;;;14.38;85.55;101283.13;180969;1260;44104;-88
2023/05/19 08:33:20;;;;;;;9.50;5.50;;;;;;;14.40;86.83;101281.33;180999;1259;59460;-88
2023/05/19 08:37:23;;;;;;;8.80;6.20;;;;;;;14.32;87.21;101285.20;181029;1260;44045;-88
2023/05/19 08:41:27;;;;;;;6.50;4.90;;;;;;;14.34;87.93;101286.48;180970;1260;43812;-87
2023/05/19 08:45:33;;;;;;;12.90;4.90;;;;;;;14.37;87.66;101284.23;180867;1260;44139;-89
2023/05/19 08:49:44;;;;;;;10.10;6.00;;;;;;;14.36;87.30;101281.30;180906;1260;44196;-89
2023/05/19 08:53:52;;;;;;;12.00;6.10;;;;;;;14.34;85.97;101279.36;181024;1260;60461;-89
2023/05/19 08:57:55;;;;;;;7.70;5.60;;;;;;;14.28;85.57;101277.70;180902;1260;45306;-89
2023/05/19 09:01:59;;;;;;;13.40;6.20;;;;;;;14.21;84.22;101279.66;180973;1260;44075;-86
2023/05/19 09:06:13;;;;;;;9.60;5.50;;;;;;;14.21;85.16;101281.11;180999;1259;44020;-89
2023/05/19 09:10:16;;;;;;;9.30;5.60;;;;;;;14.33;87.35;101273.13;181007;1259;44125;-89
2023/05/19 09:14:19;;;;;;;10.60;6.10;;;;;;;14.47;85.92;101274.18;180897;1260;59307;-89
2023/05/19 09:18:25;;;;;;;13.00;5.90;;;;;;;14.56;85.79;101275.38;181104;1259;44320;-89
2023/05/19 09:22:29;;;;;;;6.40;5.00;;;;;;;14.70;85.93;101272.06;180994;1260;43832;-88
2023/05/19 09:26:40;;;;;;;8.30;4.50;;;;;;;14.85;83.78;101269.64;181067;1259;43751;-93
2023/05/19 09:31:11;;;;;;;7.30;4.10;;;;;;;14.83;83.48;101263.77;181397;1258;88512;-60
2023/05/19 09:35:19;;;;;;;95.00;69.60;;;;;;;14.90;82.57;101265.67;181200;1258;59603;-86
2023/05/19 09:39:23;;;;;;;8.40;4.10;;;;;;;15.04;82.44;101263.02;181065;1259;44530;-86
2023/05/19 09:43:28;;;;;;;6.60;3.50;;;;;;;15.08;80.51;101254.09;181010;1260;43739;-87
2023/05/19 09:47:38;;;;;;;7.30;4.80;;;;;;;15.25;81.09;101256.11;181087;1257;44414;-88
2023/05/19 09:51:42;;;;;;;12.30;4.30;;;;;;;15.42;80.06;101258.56;181004;1260;44318;-86
2023/05/19 09:55:47;;;;;;;8.30;4.60;;;;;;;15.46;79.78;101254.99;181019;1260;59378;-87
2023/05/19 09:59:50;;;;;;;10.00;4.90;;;;;;;15.54;79.42;101251.55;181173;1259;44108;-86
2023/05/19 10:03:54;;;;;;;6.60;4.10;;;;;;;15.67;79.30;101245.14;181043;1259;44147;-87
2023/05/19 10:07:57;;;;;;;11.70;4.50;;;;;;;15.75;78.04;101245.34;181189;1258;44342;-86
2023/05/19 10:12:02;;;;;;;9.70;4.80;;;;;;;15.71;79.25;101239.77;181182;1260;43853;-87
2023/05/19 10:16:05;;;;;;;8.30;6.60;;;;;;;15.66;78.73;101234.80;181039;1259;59468;-86
2023/05/19 10:20:11;;;;;;;9.70;5.00;;;;;;;15.72;79.74;101232.71;181193;1258;44087;-86
2023/05/19 10:24:14;;;;;;;6.20;3.80;;;;;;;15.69;77.41;101228.83;181035;1259;43767;-87
2023/05/19 10:28:24;;;;;;;5.00;4.10;;;;;;;15.68;78.81;101232.71;180971;1260;44054;-85
2023/05/19 10:32:31;;;;;;;4.50;3.80;;;;;;;15.53;78.56;101235.27;181182;1257;43894;-85
2023/05/19 10:36:58;;;;;;;39.20;23.30;;;;;;;15.44;80.54;101233.37;180926;1258;57878;-85
2023/05/19 10:41:20;;;;;;;10.40;6.70;;;;;;;15.34;80.95;101238.13;181127;1257;43879;-86
2023/05/19 10:45:26;;;;;;;6.90;3.60;;;;;;;15.24;82.00;101238.97;181195;1258;46408;-85
2023/05/19 10:49:34;;;;;;;8.30;3.60;;;;;;;15.14;82.93;101238.10;181150;1257;44357;-87
2023/05/19 10:53:45;;;;;;;7.80;6.20;;;;;;;15.15;84.10;101245.17;181241;1257;44019;-84
2023/05/19 10:57:57;;;;;;;5.30;4.40;;;;;;;15.15;82.80;101245.45;181168;1257;57929;-82
2023/05/19 11:02:04;;;;;;;5.90;4.40;;;;;;;15.10;81.89;101241.48;181104;1257;43971;-82
2023/05/19 11:06:17;;;;;;;8.10;6.20;;;;;;;15.07;81.82;101235.95;180973;1259;43970;-83
2023/05/19 11:10:23;;;;;;;10.30;4.20;;;;;;;15.22;83.49;101231.15;181229;1257;44052;-82
2023/05/19 11:14:26;;;;;;;;;;;;;;;15.38;82.51;101225.61;181056;1258;44804;-83
2023/05/19 11:18:30;;;;;;;8.80;5.30;;;;;;;15.58;81.04;101223.02;181097;1259;58948;-83
2023/05/19 11:22:35;;;;;;;7.20;4.20;;;;;;;15.64;79.27;101227.02;180936;1259;44197;-83
2023/05/19 11:26:44;;;;;;;6.10;4.00;;;;;;;15.64;78.62;101223.95;181010;1258;43945;-83
2023/05/19 11:30:50;;;;;;;6.80;4.80;;;;;;;15.71;79.48;101218.30;180968;1259;43808;-83
2023/05/19 11:34:56;;;;;;;8.50;4.70;;;;;;;15.80;78.77;101210.29;180994;1258;44096;-83
2023/05/19 11:39:01;;;;;;;7.00;6.10;;;;;;;15.83;79.62;101210.98;180965;1260;59225;-83
2023/05/19 11:43:04;;;;;;;8.30;5.00;;;;;;;15.84;78.90;101209.65;181073;1258;43755;-83
2023/05/19 11:47:08;;;;;;;9.90;6.00;;;;;;;15.83;78.34;101211.19;181216;1259;44206;-83
2023/05/19 11:51:11;;;;;;;8.90;5.80;;;;;;;15.80;77.93;101209.98;181020;1259;43924;-82
2023/05/19 11:55:15;;;;;;;7.80;6.00;;;;;;;15.88;78.61;101210.05;181057;1260;44143;-82
2023/05/19 11:59:28;;;;;;;6.70;5.50;;;;;;;15.96;77.91;101207.02;181078;1259;58584;-83
2023/05/19 12:03:31;;;;;;;8.60;6.20;;;;;;;15.99;77.20;101210.87;180985;1259;44174;-82
2023/05/19 12:07:36;;;;;;;9.60;5.80;;;;;;;16.06;77.95;101212.51;181102;1259;44062;-84
2023/05/19 12:11:39;;;;;;;10.40;5.70;;;;;;;15.97;77.23;101213.20;181125;1259;43959;-84
2023/05/19 12:15:42;;;;;;;10.40;6.80;;;;;;;15.94;77.47;101215.41;181141;1259;44029;-83
2023/05/19 12:19:47;;;;;;;8.60;6.50;;;;;;;15.92;78.14;101215.23;181100;1260;59559;-83
2023/05/19 12:23:50;;;;;;;7.90;5.40;;;;;;;15.90;78.71;101213.41;181122;1260;44229;-83
2023/05/19 12:28:03;;;;;;;8.80;5.80;;;;;;;15.91;79.56;101213.88;181062;1259;44316;-84
2023/05/19 12:32:07;;;;;;;9.90;6.50;;;;;;;15.96;80.04;101217.15;180998;1257;43884;-85
2023/05/19 12:36:12;;;;;;;9.20;7.00;;;;;;;15.98;78.58;101215.55;181015;1259;43854;-84
2023/05/19 12:40:15;;;;;;;9.50;6.90;;;;;;;16.00;78.45;101221.45;181013;1257;57889;-83
2023/05/19 12:44:18;;;;;;;8.50;6.20;;;;;;;15.98;78.09;101225.77;181064;1257;43698;-83
2023/05/19 12:48:21;;;;;;;9.20;6.20;;;;;;;15.94;78.92;101224.16;181159;1259;44018;-84
2023/05/19 12:52:27;;;;;;;9.40;6.80;;;;;;;15.88;79.61;101223.59;181036;1257;43735;-83
2023/05/19 12:56:30;;;;;;;;;;;;;;;15.84;80.22;101222.50;181091;1257;44164;-83
2023/05/19 13:00:39;;;;;;;13.60;8.80;;;;;;;15.76;80.47;101225.70;181078;1259;57293;-83
2023/05/19 13:04:43;;;;;;;6.80;5.20;;;;;;;15.79;81.88;101225.14;181071;1257;44141;-82
2023/05/19 13:08:46;;;;;;;9.20;6.20;;;;;;;15.80;82.11;101217.98;181034;1261;44044;-81
2023/05/19 13:12:49;;;;;;;8.00;5.40;;;;;;;15.84;81.89;101212.70;180994;1257;44107;-81
2023/05/19 13:16:51;;;;;;;9.10;7.10;;;;;;;15.92;82.48;101212.06;181149;1260;43699;-82
2023/05/19 13:20:55;;;;;;;10.50;6.30;;;;;;;15.95;82.07;101205.16;181103;1259;59211;-82
2023/05/19 13:24:58;;;;;;;7.80;6.00;;;;;;;16.04;80.95;101205.95;180835;1259;44113;-82
2023/05/19 13:29:01;;;;;;;13.50;6.10;;;;;;;16.04;80.27;101210.23;181078;1259;44115;-82
2023/05/19 13:33:04;;;;;;;12.40;7.10;;;;;;;16.08;80.26;101214.72;181058;1259;43892;-81
2023/05/19 13:37:08;;;;;;;7.70;6.90;;;;;;;16.03;79.69;101217.32;180993;1261;43750;-82
2023/05/19 13:41:12;;;;;;;9.70;7.00;;;;;;;15.96;80.57;101213.29;180984;1259;57968;-82
2023/05/19 13:45:17;;;;;;;16.20;7.40;;;;;;;15.96;82.47;101210.08;181046;1259;44221;-82
2023/05/19 13:49:21;;;;;;;10.60;6.60;;;;;;;15.93;82.79;101210.48;181093;1260;44097;-82
2023/05/19 13:53:26;;;;;;;11.80;8.70;;;;;;;15.88;82.14;101207.33;181037;1260;44063;-84
2023/05/19 13:57:29;;;;;;;10.90;8.00;;;;;;;15.91;81.26;101202.80;180973;1260;43887;-83
2023/05/19 14:01:32;;;;;;;12.80;7.90;;;;;;;16.04;81.16;101200.90;181041;1257;60139;-83
2023/05/19 14:05:36;;;;;;;17.90;8.50;;;;;;;16.20;81.33;101194.84;180952;1260;43715;-86
2023/05/19 14:09:39;;;;;;;17.30;7.90;;;;;;;16.38;80.37;101196.79;181123;1259;44009;-84
2023/05/19 14:13:42;;;;;;;9.70;8.30;;;;;;;16.44;79.21;101193.20;180979;1259;44148;-84
2023/05/19 14:17:45;;;;;;;11.30;8.80;;;;;;;16.48;78.38;101198.23;181073;1260;44077;-84
2023/05/19 14:21:49;;;;;;;8.60;7.80;;;;;;;16.50;79.36;101201.73;181027;1260;57907;-83
2023/05/19 14:25:52;;;;;;;10.00;8.30;;;;;;;16.50;79.22;101201.40;180976;1258;44257;-83
2023/05/19 14:29:55;;;;;;;11.30;8.10;;;;;;;16.36;79.71;101199.23;180980;1259;43841;-84
2023/05/19 14:33:59;;;;;;;10.00;8.60;;;;;;;16.25;79.49;101196.16;181091;1261;43698;-85
2023/05/19 14:38:02;;;;;;;8.80;7.90;;;;;;;16.20;80.88;101198.38;181023;1262;43786;-85
2023/05/19 14:42:05;;;;;;;19.70;9.40;;;;;;;16.15;81.35;101195.80;181107;1258;58334;-83
2023/05/19 14:46:08;;;;;;;11.80;9.50;;;;;;;16.12;82.10;101195.91;181117;1258;44239;-82
2023/05/19 14:50:11;;;;;;;10.30;9.30;;;;;;;16.14;82.07;101192.30;181041;1262;44039;-83
2023/05/19 14:54:14;;;;;;;8.70;7.90;;;;;;;16.20;82.28;101188.02;180975;1258;44064;-83
2023/05/19 14:58:17;;;;;;;9.80;8.80;;;;;;;16.23;82.32;101190.75;181195;1259;44104;-86
2023/05/19 15:02:30;;;;;;;8.20;6.60;;;;;;;16.23;80.16;101183.83;181054;1263;59768;-85
2023/05/19 15:06:34;;;;;;;9.30;8.20;;;;;;;16.21;80.11;101185.63;181100;1259;43741;-87
2023/05/19 15:10:37;;;;;;;8.00;7.20;;;;;;;16.20;80.80;101186.41;181077;1260;44125;-82
2023/05/19 15:14:40;;;;;;;8.40;7.50;;;;;;;16.15;81.21;101183.45;181055;1260;44317;-86
2023/05/19 15:18:43;;;;;;;14.60;9.80;;;;;;;16.20;81.89;101181.92;181151;1260;44063;-85
2023/05/19 15:22:47;;;;;;;9.30;8.30;;;;;;;16.20;81.86;101181.20;181068;1260;59241;-86
2023/05/19 15:26:51;;;;;;;6.30;5.60;;;;;;;16.04;82.57;101180.48;181069;1258;43988;-83
2023/05/19 15:30:54;;;;;;;8.00;4.90;;;;;;;15.75;84.18;101182.54;181129;1259;43814;-84
2023/05/19 15:34:57;;;;;;;8.50;6.30;;;;;;;15.57;85.77;101182.53;181009;1260;43784;-84
2023/05/19 15:39:00;;;;;;;7.80;6.40;;;;;;;15.47;86.66;101185.52;181005;1260;44081;-84
2023/05/19 15:43:03;;;;;;;9.30;6.40;;;;;;;15.45;87.11;101179.50;180940;1260;58061;-83
2023/05/19 15:47:06;;;;;;;6.90;5.50;;;;;;;15.45;86.52;101183.39;180931;1259;44098;-84
2023/05/19 15:51:10;;;;;;;10.20;7.90;;;;;;;15.61;87.01;101178.02;181090;1260;43934;-83
2023/05/19 15:55:13;;;;;;;8.80;7.90;;;;;;;15.79;86.13;101177.16;181083;1258;43937;-84
2023/05/19 15:59:16;;;;;;;7.60;6.80;;;;;;;15.94;84.39;101181.11;180927;1259;44053;-84
2023/05/19 16:03:21;;;;;;;11.60;8.60;;;;;;;16.03;83.40;101178.10;181053;1259;58300;-84
2023/05/19 16:07:24;;;;;;;9.40;8.60;;;;;;;16.05;83.38;101173.98;181120;1259;44082;-85
2023/05/19 16:11:27;;;;;;;12.50;10.10;;;;;;;16.07;83.11;101170.36;181069;1259;43715;-85
2023/05/19 16:15:29;;;;;;;12.10;10.60;;;;;;;16.06;83.04;101170.45;181104;1258;43940;-86
2023/05/19 16:19:33;;;;;;;12.30;11.00;;;;;;;16.04;83.27;101173.79;181118;1261;43948;-83
2023/05/19 16:23:36;;;;;;;12.00;10.70;;;;;;;16.00;84.02;101172.67;180966;1260;58706;-85
2023/05/19 16:27:39;;;;;;;13.80;10.40;;;;;;;15.91;84.95;101174.90;181014;1260;44029;-84
2023/05/19 16:31:42;;;;;;;13.60;10.60;;;;;;;15.81;84.77;101172.73;181027;1258;44073;-84
2023/05/19 16:35:44;;;;;;;13.30;11.90;;;;;;;15.74;85.07;101168.70;181076;1260;44031;-85
2023/05/19 16:39:47;;;;;;;11.40;10.10;;;;;;;15.67;84.92;101167.33;181077;1260;43763;-83
2023/05/19 16:43:51;;;;;;;14.70;11.50;;;;;;;15.65;85.83;101164.80;181259;1258;57931;-84
2023/05/19 16:47:54;;;;;;;16.20;11.70;;;;;;;15.68;86.15;101164.23;181045;1259;43762;-84
2023/05/19 16:51:57;;;;;;;14.70;13.10;;;;;;;15.63;85.48;101161.63;181036;1261;44073;-85
2023/05/19 16:56:00;;;;;;;14.80;11.10;;;;;;;15.58;85.95;101166.13;180924;1259;219493;-85
2023/05/19 17:00:03;;;;;;;14.30;12.40;;;;;;;15.57;86.33;101165.94;181290;1259;44089;-85
2023/05/19 17:04:06;;;;;;;14.20;11.00;;;;;;;15.51;87.33;101171.76;181177;1260;59563;-85
2023/05/19 17:08:11;;;;;;;11.00;8.30;;;;;;;15.47;88.05;101176.80;181143;1260;44147;-86
2023/05/19 17:12:14;;;;;;;10.90;9.30;;;;;;;15.43;87.66;101178.41;181145;1259;43751;-86
2023/05/19 17:16:17;;;;;;;13.00;11.30;;;;;;;15.41;87.30;101179.48;181158;1257;43982;-85
2023/05/19 17:20:20;;;;;;;11.70;8.90;;;;;;;15.38;87.35;101180.47;181099;1260;44182;-86
2023/05/19 17:24:23;;;;;;;11.50;9.20;;;;;;;15.34;87.77;101182.63;181021;1260;58185;-85
2023/05/19 17:28:26;;;;;;;11.10;10.00;;;;;;;15.27;88.42;101180.84;181119;1258;44038;-86
2023/05/19 17:32:34;;;;;;;11.80;8.90;;;;;;;15.22;89.04;101185.78;181047;1260;44089;-86
2023/05/19 17:36:37;;;;;;;10.70;8.20;;;;;;;15.22;89.38;101188.27;181058;1259;43998;-86
2023/05/19 17:40:41;;;;;;;10.00;9.00;;;;;;;15.22;89.64;101196.65;181064;1258;44150;-86
2023/05/19 17:44:44;;;;;;;14.30;10.20;;;;;;;15.22;89.56;101198.56;181131;1259;58304;-86
2023/05/19 17:48:47;;;;;;;12.30;9.20;;;;;;;15.20;89.45;101197.55;181041;1259;43965;-86
2023/05/19 17:52:50;;;;;;;12.70;10.00;;;;;;;15.20;89.88;101201.45;181003;1260;43994;-85
2023/05/19 17:56:57;;;;;;;12.00;10.70;;;;;;;15.24;90.01;101198.27;181173;1259;43824;-85
2023/05/19 18:01:00;;;;;;;13.80;9.10;;;;;;;15.22;90.12;101194.70;180978;1260;44058;-86
2023/05/19 18:05:04;;;;;;;14.70;10.80;;;;;;;15.15;90.99;101193.30;181010;1259;58316;-85
2023/05/19 18:09:09;;;;;;;15.80;11.40;;;;;;;15.12;91.63;101188.40;181216;1258;43974;-86
2023/05/19 18:13:13;;;;;;;12.50;10.90;;;;;;;15.08;91.88;101185.37;180959;1259;44146;-85
2023/05/19 18:17:16;;;;;;;15.20;13.20;;;;;;;15.01;92.49;101185.06;181015;1259;44125;-86
2023/05/19 18:21:19;;;;;;;18.10;12.90;;;;;;;14.92;93.23;101188.70;181177;1259;43729;-85
2023/05/19 18:25:23;;;;;;;14.80;12.00;;;;;;;14.89;93.60;101190.39;180996;1260;58623;-86
2023/05/19 18:29:26;;;;;;;15.10;12.70;;;;;;;14.88;94.16;101190.09;181090;1259;43928;-86
2023/05/19 18:33:30;;;;;;;21.20;12.70;;;;;;;14.90;94.41;101188.50;181140;1259;43993;-85
2023/05/19 18:37:33;;;;;;;12.70;10.70;;;;;;;14.97;94.13;101189.98;181011;1260;43962;-84
2023/05/19 18:41:39;;;;;;;16.80;11.60;;;;;;;15.03;94.14;101189.30;181108;1258;43918;-85
2023/05/19 18:45:42;;;;;;;;;;;;;;;15.09;94.24;101185.95;180970;1259;59871;-85